sensor_id;sensor_type;location;lat;lon;timestamp;temperature;humidity
3348;DHT22;1687;49.540;8.574;2023-08-17T00:02:25;21.20;94.10
3348;DHT22;1687;49.540;8.574;2023-08-17T00:04:51;21.30;94.00
3348;DHT22;1687;49.540;8.574;2023-08-17T00:07:16;21.30;94.30
3348;DHT22;1687;49.540;8.574;2023-08-17T00:09:42;21.30;94.20
3348;DHT22;1687;49.540;8.574;2023-08-17T00:12:08;21.30;94.20
3348;DHT22;1687;49.540;8.574;2023-08-17T00:14:34;21.20;94.40
3348;DHT22;1687;49.540;8.574;2023-08-17T00:16:59;21.20;94.70
3348;DHT22;1687;49.540;8.574;2023-08-17T00:19:25;21.20;94.80
3348;DHT22;1687;49.540;8.574;2023-08-17T00:21:51;21.20;94.70
3348;DHT22;1687;49.540;8.574;2023-08-17T00:24:18;21.10;94.90
3348;DHT22;1687;49.540;8.574;2023-08-17T00:26:43;21.10;95.20
3348;DHT22;1687;49.540;8.574;2023-08-17T00:29:09;21.00;95.30
3348;DHT22;1687;49.540;8.574;2023-08-17T00:31:34;21.10;95.60
3348;DHT22;1687;49.540;8.574;2023-08-17T00:34:00;21.10;95.70
3348;DHT22;1687;49.540;8.574;2023-08-17T00:36:26;21.10;95.70
3348;DHT22;1687;49.540;8.574;2023-08-17T00:38:51;21.10;95.60
3348;DHT22;1687;49.540;8.574;2023-08-17T00:41:17;21.10;95.90
3348;DHT22;1687;49.540;8.574;2023-08-17T00:43:43;21.10;96.10
3348;DHT22;1687;49.540;8.574;2023-08-17T00:46:08;21.20;95.90
3348;DHT22;1687;49.540;8.574;2023-08-17T00:48:34;21.10;96.20
3348;DHT22;1687;49.540;8.574;2023-08-17T00:51:02;21.10;96.00
3348;DHT22;1687;49.540;8.574;2023-08-17T00:53:29;21.00;96.20
3348;DHT22;1687;49.540;8.574;2023-08-17T00:55:56;21.10;96.70
3348;DHT22;1687;49.540;8.574;2023-08-17T00:58:23;21.10;96.60
3348;DHT22;1687;49.540;8.574;2023-08-17T01:00:48;21.10;96.60
3348;DHT22;1687;49.540;8.574;2023-08-17T01:03:16;21.10;96.60
3348;DHT22;1687;49.540;8.574;2023-08-17T01:05:43;21.20;96.90
3348;DHT22;1687;49.540;8.574;2023-08-17T01:08:09;21.20;96.50
3348;DHT22;1687;49.540;8.574;2023-08-17T01:16:26;20.70;96.70
3348;DHT22;1687;49.540;8.574;2023-08-17T01:18:54;20.70;96.80
3348;DHT22;1687;49.540;8.574;2023-08-17T01:21:24;20.70;97.30
3348;DHT22;1687;49.540;8.574;2023-08-17T01:23:50;20.70;97.30
3348;DHT22;1687;49.540;8.574;2023-08-17T01:26:16;20.70;97.40
3348;DHT22;1687;49.540;8.574;2023-08-17T01:28:46;20.70;97.30
3348;DHT22;1687;49.540;8.574;2023-08-17T01:31:19;20.70;97.20
3348;DHT22;1687;49.540;8.574;2023-08-17T01:33:50;20.70;97.30
3348;DHT22;1687;49.540;8.574;2023-08-17T01:36:22;20.60;97.30
3348;DHT22;1687;49.540;8.574;2023-08-17T01:38:59;20.60;97.50
3348;DHT22;1687;49.540;8.574;2023-08-17T01:41:26;20.50;97.80
3348;DHT22;1687;49.540;8.574;2023-08-17T01:43:52;20.50;97.60
3348;DHT22;1687;49.540;8.574;2023-08-17T01:46:18;20.40;97.60
3348;DHT22;1687;49.540;8.574;2023-08-17T01:48:45;20.40;97.70
3348;DHT22;1687;49.540;8.574;2023-08-17T01:51:15;20.40;98.10
3348;DHT22;1687;49.540;8.574;2023-08-17T01:53:45;20.50;98.30
3348;DHT22;1687;49.540;8.574;2023-08-17T01:56:11;20.50;98.10
3348;DHT22;1687;49.540;8.574;2023-08-17T01:58:37;20.50;98.40
3348;DHT22;1687;49.540;8.574;2023-08-17T02:01:02;20.50;98.60
3348;DHT22;1687;49.540;8.574;2023-08-17T02:03:28;20.50;98.40
3348;DHT22;1687;49.540;8.574;2023-08-17T02:05:56;20.60;98.70
3348;DHT22;1687;49.540;8.574;2023-08-17T02:08:22;20.60;98.50
3348;DHT22;1687;49.540;8.574;2023-08-17T02:10:47;20.50;98.50
3348;DHT22;1687;49.540;8.574;2023-08-17T02:13:14;20.50;98.70
3348;DHT22;1687;49.540;8.574;2023-08-17T02:15:40;20.40;98.70
3348;DHT22;1687;49.540;8.574;2023-08-17T02:18:06;20.40;98.60
3348;DHT22;1687;49.540;8.574;2023-08-17T02:20:32;20.40;98.80
3348;DHT22;1687;49.540;8.574;2023-08-17T02:22:58;20.40;99.10
3348;DHT22;1687;49.540;8.574;2023-08-17T02:25:23;20.40;99.00
3348;DHT22;1687;49.540;8.574;2023-08-17T02:27:49;20.40;99.00
3348;DHT22;1687;49.540;8.574;2023-08-17T02:30:15;20.40;98.80
3348;DHT22;1687;49.540;8.574;2023-08-17T02:32:41;20.30;99.00
3348;DHT22;1687;49.540;8.574;2023-08-17T02:35:07;20.30;99.20
3348;DHT22;1687;49.540;8.574;2023-08-17T02:37:33;20.30;99.10
3348;DHT22;1687;49.540;8.574;2023-08-17T02:39:59;20.20;99.20
3348;DHT22;1687;49.540;8.574;2023-08-17T02:42:24;20.20;99.20
3348;DHT22;1687;49.540;8.574;2023-08-17T02:44:50;20.20;99.20
3348;DHT22;1687;49.540;8.574;2023-08-17T02:47:16;20.20;99.30
3348;DHT22;1687;49.540;8.574;2023-08-17T02:49:41;20.10;99.30
3348;DHT22;1687;49.540;8.574;2023-08-17T02:52:07;20.10;99.60
3348;DHT22;1687;49.540;8.574;2023-08-17T02:54:33;20.10;99.70
3348;DHT22;1687;49.540;8.574;2023-08-17T02:56:59;20.10;99.60
3348;DHT22;1687;49.540;8.574;2023-08-17T02:59:25;20.00;99.60
3348;DHT22;1687;49.540;8.574;2023-08-17T03:01:50;20.00;99.60
3348;DHT22;1687;49.540;8.574;2023-08-17T03:04:16;19.90;99.70
3348;DHT22;1687;49.540;8.574;2023-08-17T03:06:42;19.90;99.80
3348;DHT22;1687;49.540;8.574;2023-08-17T03:09:07;19.90;99.90
3348;DHT22;1687;49.540;8.574;2023-08-17T03:11:33;19.90;99.90
3348;DHT22;1687;49.540;8.574;2023-08-17T03:13:59;19.90;99.90
3348;DHT22;1687;49.540;8.574;2023-08-17T03:16:27;19.90;99.90
3348;DHT22;1687;49.540;8.574;2023-08-17T03:18:53;19.80;99.90
3348;DHT22;1687;49.540;8.574;2023-08-17T03:21:19;19.70;99.90
3348;DHT22;1687;49.540;8.574;2023-08-17T03:23:45;19.80;99.90
3348;DHT22;1687;49.540;8.574;2023-08-17T03:26:11;19.80;99.90
3348;DHT22;1687;49.540;8.574;2023-08-17T03:28:36;19.80;99.90
3348;DHT22;1687;49.540;8.574;2023-08-17T03:31:03;19.80;99.90
3348;DHT22;1687;49.540;8.574;2023-08-17T03:33:28;19.90;99.90
3348;DHT22;1687;49.540;8.574;2023-08-17T03:35:54;19.90;99.90
3348;DHT22;1687;49.540;8.574;2023-08-17T03:38:20;20.00;99.90
3348;DHT22;1687;49.540;8.574;2023-08-17T03:40:47;19.90;99.90
3348;DHT22;1687;49.540;8.574;2023-08-17T03:43:13;19.90;99.90
3348;DHT22;1687;49.540;8.574;2023-08-17T03:45:41;19.90;99.90
3348;DHT22;1687;49.540;8.574;2023-08-17T03:48:07;19.90;99.90
3348;DHT22;1687;49.540;8.574;2023-08-17T03:50:33;19.90;99.90
3348;DHT22;1687;49.540;8.574;2023-08-17T03:52:59;20.00;99.90
3348;DHT22;1687;49.540;8.574;2023-08-17T03:55:24;19.90;99.90
3348;DHT22;1687;49.540;8.574;2023-08-17T03:57:50;19.80;99.90
3348;DHT22;1687;49.540;8.574;2023-08-17T04:00:16;19.80;99.90
3348;DHT22;1687;49.540;8.574;2023-08-17T04:02:42;19.80;99.90
3348;DHT22;1687;49.540;8.574;2023-08-17T04:05:08;19.80;99.90
3348;DHT22;1687;49.540;8.574;2023-08-17T04:07:34;19.90;99.90
3348;DHT22;1687;49.540;8.574;2023-08-17T04:09:59;20.10;99.90
3348;DHT22;1687;49.540;8.574;2023-08-17T04:12:25;20.00;99.90
3348;DHT22;1687;49.540;8.574;2023-08-17T04:14:51;20.00;99.90
3348;DHT22;1687;49.540;8.574;2023-08-17T04:17:16;20.10;99.90
3348;DHT22;1687;49.540;8.574;2023-08-17T04:19:42;20.00;99.90
3348;DHT22;1687;49.540;8.574;2023-08-17T04:22:08;20.00;99.90
3348;DHT22;1687;49.540;8.574;2023-08-17T04:24:33;20.00;99.90
3348;DHT22;1687;49.540;8.574;2023-08-17T04:26:59;20.00;99.90
3348;DHT22;1687;49.540;8.574;2023-08-17T04:29:25;20.10;99.90
3348;DHT22;1687;49.540;8.574;2023-08-17T04:31:51;20.20;99.90
3348;DHT22;1687;49.540;8.574;2023-08-17T04:34:16;20.30;99.90
3348;DHT22;1687;49.540;8.574;2023-08-17T04:36:42;20.30;99.90
3348;DHT22;1687;49.540;8.574;2023-08-17T04:39:08;20.40;99.90
3348;DHT22;1687;49.540;8.574;2023-08-17T04:41:34;20.40;99.90
3348;DHT22;1687;49.540;8.574;2023-08-17T04:44:00;20.40;99.90
3348;DHT22;1687;49.540;8.574;2023-08-17T04:46:26;20.40;99.90
3348;DHT22;1687;49.540;8.574;2023-08-17T04:48:51;20.50;99.90
3348;DHT22;1687;49.540;8.574;2023-08-17T04:51:17;20.50;99.90
3348;DHT22;1687;49.540;8.574;2023-08-17T04:53:43;20.60;99.90
3348;DHT22;1687;49.540;8.574;2023-08-17T04:56:09;20.60;99.90
3348;DHT22;1687;49.540;8.574;2023-08-17T04:58:35;20.50;99.90
3348;DHT22;1687;49.540;8.574;2023-08-17T05:01:01;20.40;99.90
3348;DHT22;1687;49.540;8.574;2023-08-17T05:03:26;20.40;99.90
3348;DHT22;1687;49.540;8.574;2023-08-17T05:05:52;20.40;99.90
3348;DHT22;1687;49.540;8.574;2023-08-17T05:08:18;20.50;99.90
3348;DHT22;1687;49.540;8.574;2023-08-17T05:10:44;20.60;99.90
3348;DHT22;1687;49.540;8.574;2023-08-17T05:13:10;20.60;99.90
3348;DHT22;1687;49.540;8.574;2023-08-17T05:15:36;20.70;99.90
3348;DHT22;1687;49.540;8.574;2023-08-17T05:18:01;20.70;99.90
3348;DHT22;1687;49.540;8.574;2023-08-17T05:20:27;20.70;99.90
3348;DHT22;1687;49.540;8.574;2023-08-17T05:22:53;20.60;99.90
3348;DHT22;1687;49.540;8.574;2023-08-17T05:25:18;20.50;99.90
3348;DHT22;1687;49.540;8.574;2023-08-17T05:27:44;20.40;99.90
3348;DHT22;1687;49.540;8.574;2023-08-17T05:30:10;20.40;99.90
3348;DHT22;1687;49.540;8.574;2023-08-17T05:32:36;20.40;99.90
3348;DHT22;1687;49.540;8.574;2023-08-17T05:35:01;20.50;99.90
3348;DHT22;1687;49.540;8.574;2023-08-17T05:37:27;20.50;99.90
3348;DHT22;1687;49.540;8.574;2023-08-17T05:39:53;20.60;99.90
3348;DHT22;1687;49.540;8.574;2023-08-17T05:42:18;20.60;99.90
3348;DHT22;1687;49.540;8.574;2023-08-17T05:44:44;20.60;99.90
3348;DHT22;1687;49.540;8.574;2023-08-17T05:47:10;20.70;99.90
3348;DHT22;1687;49.540;8.574;2023-08-17T05:49:36;20.80;99.90
3348;DHT22;1687;49.540;8.574;2023-08-17T05:52:03;20.70;99.90
3348;DHT22;1687;49.540;8.574;2023-08-17T05:54:29;20.70;99.90
3348;DHT22;1687;49.540;8.574;2023-08-17T05:56:54;20.60;99.90
3348;DHT22;1687;49.540;8.574;2023-08-17T05:59:20;20.50;99.90
3348;DHT22;1687;49.540;8.574;2023-08-17T06:01:46;20.50;99.90
3348;DHT22;1687;49.540;8.574;2023-08-17T06:04:11;20.50;99.90
3348;DHT22;1687;49.540;8.574;2023-08-17T06:06:37;20.50;99.90
3348;DHT22;1687;49.540;8.574;2023-08-17T06:09:03;20.60;99.90
3348;DHT22;1687;49.540;8.574;2023-08-17T06:11:29;20.50;99.90
3348;DHT22;1687;49.540;8.574;2023-08-17T06:13:54;20.50;99.90
3348;DHT22;1687;49.540;8.574;2023-08-17T06:16:20;20.60;99.90
3348;DHT22;1687;49.540;8.574;2023-08-17T06:18:46;20.70;99.90
3348;DHT22;1687;49.540;8.574;2023-08-17T06:21:11;21.00;99.90
3348;DHT22;1687;49.540;8.574;2023-08-17T06:23:37;21.00;99.90
3348;DHT22;1687;49.540;8.574;2023-08-17T06:26:03;21.20;99.90
3348;DHT22;1687;49.540;8.574;2023-08-17T06:28:29;21.40;99.90
3348;DHT22;1687;49.540;8.574;2023-08-17T06:30:55;21.50;99.90
3348;DHT22;1687;49.540;8.574;2023-08-17T06:33:22;21.60;99.90
3348;DHT22;1687;49.540;8.574;2023-08-17T06:35:48;21.60;99.90
3348;DHT22;1687;49.540;8.574;2023-08-17T06:38:14;21.70;99.90
3348;DHT22;1687;49.540;8.574;2023-08-17T06:40:40;21.70;99.90
3348;DHT22;1687;49.540;8.574;2023-08-17T06:43:06;21.70;99.90
3348;DHT22;1687;49.540;8.574;2023-08-17T06:45:32;21.70;99.90
3348;DHT22;1687;49.540;8.574;2023-08-17T06:47:58;21.70;99.90
3348;DHT22;1687;49.540;8.574;2023-08-17T06:50:24;21.80;99.90
3348;DHT22;1687;49.540;8.574;2023-08-17T06:52:50;21.80;99.90
3348;DHT22;1687;49.540;8.574;2023-08-17T06:55:16;21.70;99.90
3348;DHT22;1687;49.540;8.574;2023-08-17T06:57:42;21.70;99.90
3348;DHT22;1687;49.540;8.574;2023-08-17T07:00:08;21.90;99.90
3348;DHT22;1687;49.540;8.574;2023-08-17T07:02:34;22.00;99.90
3348;DHT22;1687;49.540;8.574;2023-08-17T07:05:00;22.10;99.90
3348;DHT22;1687;49.540;8.574;2023-08-17T07:07:26;22.20;99.90
3348;DHT22;1687;49.540;8.574;2023-08-17T07:09:52;22.30;99.90
3348;DHT22;1687;49.540;8.574;2023-08-17T07:12:17;22.50;99.90
3348;DHT22;1687;49.540;8.574;2023-08-17T07:14:44;22.60;99.90
3348;DHT22;1687;49.540;8.574;2023-08-17T07:17:10;22.60;99.90
3348;DHT22;1687;49.540;8.574;2023-08-17T07:19:36;22.60;99.90
3348;DHT22;1687;49.540;8.574;2023-08-17T07:22:01;22.60;99.90
3348;DHT22;1687;49.540;8.574;2023-08-17T07:24:27;22.70;99.90
3348;DHT22;1687;49.540;8.574;2023-08-17T07:26:53;22.70;99.90
3348;DHT22;1687;49.540;8.574;2023-08-17T07:29:18;22.50;99.90
3348;DHT22;1687;49.540;8.574;2023-08-17T07:31:44;22.60;99.90
3348;DHT22;1687;49.540;8.574;2023-08-17T07:34:10;22.70;99.90
3348;DHT22;1687;49.540;8.574;2023-08-17T07:36:35;22.90;99.90
3348;DHT22;1687;49.540;8.574;2023-08-17T07:39:01;23.00;99.90
3348;DHT22;1687;49.540;8.574;2023-08-17T07:41:27;22.80;99.90
3348;DHT22;1687;49.540;8.574;2023-08-17T07:43:52;22.80;99.90
3348;DHT22;1687;49.540;8.574;2023-08-17T07:46:18;22.90;99.90
3348;DHT22;1687;49.540;8.574;2023-08-17T07:48:44;22.90;99.90
3348;DHT22;1687;49.540;8.574;2023-08-17T07:51:10;23.00;99.90
3348;DHT22;1687;49.540;8.574;2023-08-17T07:53:35;23.10;99.90
3348;DHT22;1687;49.540;8.574;2023-08-17T07:56:01;23.20;99.90
3348;DHT22;1687;49.540;8.574;2023-08-17T07:58:27;23.40;99.90
3348;DHT22;1687;49.540;8.574;2023-08-17T08:00:52;23.70;99.90
3348;DHT22;1687;49.540;8.574;2023-08-17T08:03:18;24.00;99.90
3348;DHT22;1687;49.540;8.574;2023-08-17T08:05:44;24.00;99.90
3348;DHT22;1687;49.540;8.574;2023-08-17T08:08:09;24.00;99.90
3348;DHT22;1687;49.540;8.574;2023-08-17T08:10:35;24.00;99.90
3348;DHT22;1687;49.540;8.574;2023-08-17T08:13:01;24.00;99.90
3348;DHT22;1687;49.540;8.574;2023-08-17T08:15:26;24.10;99.90
3348;DHT22;1687;49.540;8.574;2023-08-17T08:17:52;24.30;99.90
3348;DHT22;1687;49.540;8.574;2023-08-17T08:20:18;24.70;99.90
3348;DHT22;1687;49.540;8.574;2023-08-17T08:22:43;25.00;99.90
3348;DHT22;1687;49.540;8.574;2023-08-17T08:25:10;24.80;99.20
3348;DHT22;1687;49.540;8.574;2023-08-17T08:27:35;24.50;99.10
3348;DHT22;1687;49.540;8.574;2023-08-17T08:30:01;24.30;99.30
3348;DHT22;1687;49.540;8.574;2023-08-17T08:32:27;24.10;99.10
3348;DHT22;1687;49.540;8.574;2023-08-17T08:34:52;24.10;99.40
3348;DHT22;1687;49.540;8.574;2023-08-17T08:37:18;24.30;99.60
3348;DHT22;1687;49.540;8.574;2023-08-17T08:39:51;24.60;99.10
3348;DHT22;1687;49.540;8.574;2023-08-17T08:42:18;24.80;99.00
3348;DHT22;1687;49.540;8.574;2023-08-17T08:44:45;24.80;98.90
3348;DHT22;1687;49.540;8.574;2023-08-17T08:47:12;25.00;98.90
3348;DHT22;1687;49.540;8.574;2023-08-17T08:49:56;25.20;98.70
3348;DHT22;1687;49.540;8.574;2023-08-17T08:52:33;25.20;98.20
3348;DHT22;1687;49.540;8.574;2023-08-17T08:55:15;25.30;98.30
3348;DHT22;1687;49.540;8.574;2023-08-17T08:57:43;25.50;98.20
3348;DHT22;1687;49.540;8.574;2023-08-17T09:00:10;25.80;97.80
3348;DHT22;1687;49.540;8.574;2023-08-17T09:02:37;25.90;97.40
3348;DHT22;1687;49.540;8.574;2023-08-17T09:05:05;25.80;96.40
3348;DHT22;1687;49.540;8.574;2023-08-17T09:07:33;25.60;96.50
3348;DHT22;1687;49.540;8.574;2023-08-17T09:09:58;25.50;96.40
3348;DHT22;1687;49.540;8.574;2023-08-17T09:12:25;25.40;95.50
3348;DHT22;1687;49.540;8.574;2023-08-17T09:14:50;25.20;95.70
3348;DHT22;1687;49.540;8.574;2023-08-17T09:17:27;25.10;95.90
3348;DHT22;1687;49.540;8.574;2023-08-17T09:19:54;25.10;95.80
3348;DHT22;1687;49.540;8.574;2023-08-17T09:22:23;25.00;95.90
3348;DHT22;1687;49.540;8.574;2023-08-17T09:24:49;25.00;95.80
3348;DHT22;1687;49.540;8.574;2023-08-17T09:27:16;25.00;95.80
3348;DHT22;1687;49.540;8.574;2023-08-17T09:29:45;25.00;95.50
3348;DHT22;1687;49.540;8.574;2023-08-17T09:32:11;25.10;95.80
3348;DHT22;1687;49.540;8.574;2023-08-17T09:34:44;25.10;95.50
3348;DHT22;1687;49.540;8.574;2023-08-17T09:37:11;25.00;95.20
3348;DHT22;1687;49.540;8.574;2023-08-17T09:39:37;24.90;95.00
3348;DHT22;1687;49.540;8.574;2023-08-17T09:42:03;25.00;95.70
3348;DHT22;1687;49.540;8.574;2023-08-17T09:44:29;25.20;95.90
3348;DHT22;1687;49.540;8.574;2023-08-17T09:46:55;25.40;95.90
3348;DHT22;1687;49.540;8.574;2023-08-17T09:49:23;25.50;95.40
3348;DHT22;1687;49.540;8.574;2023-08-17T09:51:52;25.60;95.00
3348;DHT22;1687;49.540;8.574;2023-08-17T09:54:22;25.60;95.20
3348;DHT22;1687;49.540;8.574;2023-08-17T09:56:52;25.60;95.00
3348;DHT22;1687;49.540;8.574;2023-08-17T09:59:19;25.70;94.80
3348;DHT22;1687;49.540;8.574;2023-08-17T10:01:49;25.60;94.10
3348;DHT22;1687;49.540;8.574;2023-08-17T10:04:23;25.60;94.60
3348;DHT22;1687;49.540;8.574;2023-08-17T10:06:52;25.80;95.10
3348;DHT22;1687;49.540;8.574;2023-08-17T10:09:24;26.10;95.00
3348;DHT22;1687;49.540;8.574;2023-08-17T10:11:57;26.10;93.50
3348;DHT22;1687;49.540;8.574;2023-08-17T10:14:28;26.10;93.50
3348;DHT22;1687;49.540;8.574;2023-08-17T10:17:02;25.90;93.30
3348;DHT22;1687;49.540;8.574;2023-08-17T10:19:43;25.90;93.50
3348;DHT22;1687;49.540;8.574;2023-08-17T10:22:23;25.90;93.40
3348;DHT22;1687;49.540;8.574;2023-08-17T10:24:56;26.00;93.30
3348;DHT22;1687;49.540;8.574;2023-08-17T10:27:25;26.10;93.20
3348;DHT22;1687;49.540;8.574;2023-08-17T10:29:52;26.10;93.30
3348;DHT22;1687;49.540;8.574;2023-08-17T10:32:20;26.10;92.90
3348;DHT22;1687;49.540;8.574;2023-08-17T10:34:47;26.20;92.70
3348;DHT22;1687;49.540;8.574;2023-08-17T10:37:14;26.30;93.40
3348;DHT22;1687;49.540;8.574;2023-08-17T10:39:48;26.50;93.00
3348;DHT22;1687;49.540;8.574;2023-08-17T10:42:14;26.70;92.70
3348;DHT22;1687;49.540;8.574;2023-08-17T10:44:43;26.60;92.10
3348;DHT22;1687;49.540;8.574;2023-08-17T10:47:20;26.60;92.50
3348;DHT22;1687;49.540;8.574;2023-08-17T10:50:06;26.70;92.00
3348;DHT22;1687;49.540;8.574;2023-08-17T10:52:49;26.70;91.70
3348;DHT22;1687;49.540;8.574;2023-08-17T10:55:15;26.60;91.90
3348;DHT22;1687;49.540;8.574;2023-08-17T10:57:42;26.70;92.10
3348;DHT22;1687;49.540;8.574;2023-08-17T11:00:18;26.80;91.80
3348;DHT22;1687;49.540;8.574;2023-08-17T11:03:17;27.00;92.10
3348;DHT22;1687;49.540;8.574;2023-08-17T11:05:50;27.20;91.50
3348;DHT22;1687;49.540;8.574;2023-08-17T11:11:15;27.20;91.20
3348;DHT22;1687;49.540;8.574;2023-08-17T11:13:43;27.30;91.20
3348;DHT22;1687;49.540;8.574;2023-08-17T11:16:11;27.30;90.90
3348;DHT22;1687;49.540;8.574;2023-08-17T11:18:38;27.30;90.90
3348;DHT22;1687;49.540;8.574;2023-08-17T11:21:05;27.30;90.70
3348;DHT22;1687;49.540;8.574;2023-08-17T11:23:33;27.30;90.40
3348;DHT22;1687;49.540;8.574;2023-08-17T11:26:00;27.20;90.60
3348;DHT22;1687;49.540;8.574;2023-08-17T11:28:26;27.30;90.90
3348;DHT22;1687;49.540;8.574;2023-08-17T11:30:59;27.50;90.60
3348;DHT22;1687;49.540;8.574;2023-08-17T11:33:26;27.60;90.30
3348;DHT22;1687;49.540;8.574;2023-08-17T11:35:56;27.50;90.50
3348;DHT22;1687;49.540;8.574;2023-08-17T11:38:30;27.60;90.40
3348;DHT22;1687;49.540;8.574;2023-08-17T11:40:58;27.70;90.10
3348;DHT22;1687;49.540;8.574;2023-08-17T11:43:25;27.70;90.10
3348;DHT22;1687;49.540;8.574;2023-08-17T11:45:52;27.80;90.10
3348;DHT22;1687;49.540;8.574;2023-08-17T11:48:19;27.80;89.60
3348;DHT22;1687;49.540;8.574;2023-08-17T11:50:45;27.80;89.40
3348;DHT22;1687;49.540;8.574;2023-08-17T11:53:11;27.90;89.30
3348;DHT22;1687;49.540;8.574;2023-08-17T11:55:36;28.10;89.60
3348;DHT22;1687;49.540;8.574;2023-08-17T11:58:03;28.20;89.30
3348;DHT22;1687;49.540;8.574;2023-08-17T12:00:35;28.30;88.80
3348;DHT22;1687;49.540;8.574;2023-08-17T12:03:02;28.50;88.70
3348;DHT22;1687;49.540;8.574;2023-08-17T12:05:31;28.70;88.10
3348;DHT22;1687;49.540;8.574;2023-08-17T12:07:59;28.70;87.30
3348;DHT22;1687;49.540;8.574;2023-08-17T12:10:31;28.60;87.00
3348;DHT22;1687;49.540;8.574;2023-08-17T12:12:58;28.70;87.00
3348;DHT22;1687;49.540;8.574;2023-08-17T12:15:33;28.70;86.20
3348;DHT22;1687;49.540;8.574;2023-08-17T12:18:02;28.40;85.50
3348;DHT22;1687;49.540;8.574;2023-08-17T12:20:29;28.10;85.40
3348;DHT22;1687;49.540;8.574;2023-08-17T12:22:58;27.90;85.20
3348;DHT22;1687;49.540;8.574;2023-08-17T12:25:26;27.80;86.10
3348;DHT22;1687;49.540;8.574;2023-08-17T12:27:52;27.80;86.10
3348;DHT22;1687;49.540;8.574;2023-08-17T12:30:26;27.80;86.70
3348;DHT22;1687;49.540;8.574;2023-08-17T12:32:54;27.90;86.00
3348;DHT22;1687;49.540;8.574;2023-08-17T12:35:19;27.90;85.90
3348;DHT22;1687;49.540;8.574;2023-08-17T12:37:47;28.00;86.30
3348;DHT22;1687;49.540;8.574;2023-08-17T12:40:13;28.00;86.10
3348;DHT22;1687;49.540;8.574;2023-08-17T12:42:39;28.10;85.60
3348;DHT22;1687;49.540;8.574;2023-08-17T12:45:05;28.10;85.90
3348;DHT22;1687;49.540;8.574;2023-08-17T12:47:31;28.30;85.90
3348;DHT22;1687;49.540;8.574;2023-08-17T12:49:56;28.40;85.60
3348;DHT22;1687;49.540;8.574;2023-08-17T12:52:22;28.40;84.90
3348;DHT22;1687;49.540;8.574;2023-08-17T12:54:48;28.50;84.80
3348;DHT22;1687;49.540;8.574;2023-08-17T12:57:14;28.60;84.60
3348;DHT22;1687;49.540;8.574;2023-08-17T12:59:39;28.60;84.20
3348;DHT22;1687;49.540;8.574;2023-08-17T13:02:05;28.80;84.90
3348;DHT22;1687;49.540;8.574;2023-08-17T13:04:31;29.00;83.90
3348;DHT22;1687;49.540;8.574;2023-08-17T13:06:57;29.00;83.90
3348;DHT22;1687;49.540;8.574;2023-08-17T13:09:22;29.30;83.60
3348;DHT22;1687;49.540;8.574;2023-08-17T13:11:48;29.30;82.50
3348;DHT22;1687;49.540;8.574;2023-08-17T13:14:14;29.40;83.50
3348;DHT22;1687;49.540;8.574;2023-08-17T13:16:41;29.70;83.10
3348;DHT22;1687;49.540;8.574;2023-08-17T13:19:07;29.80;82.10
3348;DHT22;1687;49.540;8.574;2023-08-17T13:21:32;29.70;82.00
3348;DHT22;1687;49.540;8.574;2023-08-17T13:23:58;29.60;81.40
3348;DHT22;1687;49.540;8.574;2023-08-17T13:26:24;29.60;81.30
3348;DHT22;1687;49.540;8.574;2023-08-17T13:28:49;29.50;81.10
3348;DHT22;1687;49.540;8.574;2023-08-17T13:31:15;29.40;80.70
3348;DHT22;1687;49.540;8.574;2023-08-17T13:33:41;29.40;81.00
3348;DHT22;1687;49.540;8.574;2023-08-17T13:36:06;29.30;80.70
3348;DHT22;1687;49.540;8.574;2023-08-17T13:38:32;29.20;80.30
3348;DHT22;1687;49.540;8.574;2023-08-17T13:40:58;29.20;80.70
3348;DHT22;1687;49.540;8.574;2023-08-17T13:43:23;29.20;80.60
3348;DHT22;1687;49.540;8.574;2023-08-17T13:45:49;29.20;80.80
3348;DHT22;1687;49.540;8.574;2023-08-17T13:48:15;29.20;80.60
3348;DHT22;1687;49.540;8.574;2023-08-17T13:50:40;29.20;80.00
3348;DHT22;1687;49.540;8.574;2023-08-17T13:53:06;29.00;80.10
3348;DHT22;1687;49.540;8.574;2023-08-17T13:55:32;29.00;80.60
3348;DHT22;1687;49.540;8.574;2023-08-17T13:57:58;29.10;80.60
3348;DHT22;1687;49.540;8.574;2023-08-17T14:00:25;29.20;80.70
3348;DHT22;1687;49.540;8.574;2023-08-17T14:02:52;29.10;80.30
3348;DHT22;1687;49.540;8.574;2023-08-17T14:05:18;29.20;80.90
3348;DHT22;1687;49.540;8.574;2023-08-17T14:07:43;29.20;80.60
3348;DHT22;1687;49.540;8.574;2023-08-17T14:10:10;29.10;80.20
3348;DHT22;1687;49.540;8.574;2023-08-17T14:12:36;29.10;80.50
3348;DHT22;1687;49.540;8.574;2023-08-17T14:15:01;29.50;81.70
3348;DHT22;1687;49.540;8.574;2023-08-17T14:17:27;30.50;82.20
3348;DHT22;1687;49.540;8.574;2023-08-17T14:19:53;31.20;81.10
3348;DHT22;1687;49.540;8.574;2023-08-17T14:22:20;31.80;80.60
3348;DHT22;1687;49.540;8.574;2023-08-17T14:24:45;32.60;80.30
3348;DHT22;1687;49.540;8.574;2023-08-17T14:27:11;33.50;80.20
3348;DHT22;1687;49.540;8.574;2023-08-17T14:29:38;34.50;78.80
3348;DHT22;1687;49.540;8.574;2023-08-17T14:32:04;35.00;76.60
3348;DHT22;1687;49.540;8.574;2023-08-17T14:34:30;35.40;77.00
3348;DHT22;1687;49.540;8.574;2023-08-17T14:36:55;36.00;75.60
3348;DHT22;1687;49.540;8.574;2023-08-17T14:39:21;36.30;74.70
3348;DHT22;1687;49.540;8.574;2023-08-17T14:41:46;36.40;72.30
3348;DHT22;1687;49.540;8.574;2023-08-17T14:44:12;36.20;70.90
3348;DHT22;1687;49.540;8.574;2023-08-17T14:46:38;35.80;71.00
3348;DHT22;1687;49.540;8.574;2023-08-17T14:49:04;36.20;71.40
3348;DHT22;1687;49.540;8.574;2023-08-17T14:51:39;36.80;70.70
3348;DHT22;1687;49.540;8.574;2023-08-17T14:54:06;36.90;68.70
3348;DHT22;1687;49.540;8.574;2023-08-17T14:56:33;37.30;68.80
3348;DHT22;1687;49.540;8.574;2023-08-17T14:58:59;37.40;66.70
3348;DHT22;1687;49.540;8.574;2023-08-17T15:01:24;37.00;66.70
3348;DHT22;1687;49.540;8.574;2023-08-17T15:03:50;36.90;66.50
3348;DHT22;1687;49.540;8.574;2023-08-17T15:06:16;36.70;64.80
3348;DHT22;1687;49.540;8.574;2023-08-17T15:08:41;36.60;65.10
3348;DHT22;1687;49.540;8.574;2023-08-17T15:11:07;36.60;64.70
3348;DHT22;1687;49.540;8.574;2023-08-17T15:13:33;36.90;65.00
3348;DHT22;1687;49.540;8.574;2023-08-17T15:15:58;37.00;64.30
3348;DHT22;1687;49.540;8.574;2023-08-17T15:18:24;36.90;63.20
3348;DHT22;1687;49.540;8.574;2023-08-17T15:20:50;36.80;63.20
3348;DHT22;1687;49.540;8.574;2023-08-17T15:23:15;36.90;63.30
3348;DHT22;1687;49.540;8.574;2023-08-17T15:25:41;37.10;63.20
3348;DHT22;1687;49.540;8.574;2023-08-17T15:28:07;37.50;63.70
3348;DHT22;1687;49.540;8.574;2023-08-17T15:30:32;38.50;63.80
3348;DHT22;1687;49.540;8.574;2023-08-17T15:32:58;39.50;62.70
3348;DHT22;1687;49.540;8.574;2023-08-17T15:35:24;39.70;59.40
3348;DHT22;1687;49.540;8.574;2023-08-17T15:37:49;40.00;59.80
3348;DHT22;1687;49.540;8.574;2023-08-17T15:40:15;40.40;59.30
3348;DHT22;1687;49.540;8.574;2023-08-17T15:42:41;40.80;58.80
3348;DHT22;1687;49.540;8.574;2023-08-17T15:45:07;41.40;57.80
3348;DHT22;1687;49.540;8.574;2023-08-17T15:47:33;41.60;57.40
3348;DHT22;1687;49.540;8.574;2023-08-17T15:49:59;42.00;57.00
3348;DHT22;1687;49.540;8.574;2023-08-17T15:52:25;42.10;56.00
3348;DHT22;1687;49.540;8.574;2023-08-17T15:54:51;42.20;55.70
3348;DHT22;1687;49.540;8.574;2023-08-17T15:57:16;42.50;55.50
3348;DHT22;1687;49.540;8.574;2023-08-17T15:59:42;43.00;54.50
3348;DHT22;1687;49.540;8.574;2023-08-17T16:02:09;42.90;54.60
3348;DHT22;1687;49.540;8.574;2023-08-17T16:04:34;43.30;54.80
3348;DHT22;1687;49.540;8.574;2023-08-17T16:07:00;43.40;53.20
3348;DHT22;1687;49.540;8.574;2023-08-17T16:09:26;43.20;52.30